Time;durP1;ratioP1;P1;durP2;ratioP2;P2;SDS_P1;SDS_P2;PMS_P1;PMS_P2;Temp;Humidity;BMP_temperature;BMP_pressure;BME280_temperature;BME280_humidity;BME280_pressure;Samples;Min_cycle;Max_cycle;Signal;HPM_P1;HPM_P2
2022/01/18 00:01:24;;;;;;;19.30;6.65;;;;;;;7.91;71.11;103742.19;5100337;28;20142;-58
2022/01/18 00:03:52;;;;;;;23.88;5.70;;;;;;;7.88;71.43;103756.69;5101096;28;20071;-58
2022/01/18 00:06:21;;;;;;;18.23;5.82;;;;;;;7.88;71.56;103761.19;5100021;28;20463;-58
2022/01/18 00:08:49;;;;;;;21.23;5.10;;;;;;;7.87;71.40;103757.66;5099810;28;20080;-59
2022/01/18 00:11:18;;;;;;;18.77;5.72;;;;;;;7.85;71.79;103764.97;5101116;28;20123;-58
2022/01/18 00:13:49;;;;;;;19.17;6.38;;;;;;;7.84;71.96;103766.81;5099931;28;20550;-58
2022/01/18 00:16:27;;;;;;;28.65;7.90;;;;;;;7.83;70.98;103761.59;5100445;28;20115;-58
2022/01/18 00:19:00;;;;;;;14.95;4.95;;;;;;;7.83;71.83;103759.75;5098052;28;20055;-59
2022/01/18 00:21:38;;;;;;;18.95;5.55;;;;;;;7.84;70.97;103758.78;5101152;28;20063;-59
2022/01/18 00:24:07;;;;;;;23.13;5.78;;;;;;;7.85;71.15;103756.94;5100863;28;20044;-58
2022/01/18 00:26:35;;;;;;;22.95;6.95;;;;;;;7.87;70.84;103754.13;5100596;28;20072;-58
2022/01/18 00:29:09;;;;;;;21.13;5.80;;;;;;;7.76;71.12;103741.66;5097711;28;20048;-58
2022/01/18 00:32:06;;;;;;;22.88;7.32;;;;;;;7.85;71.70;103767.66;5100753;28;20048;-58
2022/01/18 00:34:37;;;;;;;26.60;6.03;;;;;;;7.86;71.38;103774.72;5100423;28;20048;-58
2022/01/18 00:37:25;;;;;;;29.20;7.13;;;;;;;7.83;71.28;103773.13;5100614;28;20055;-59
2022/01/18 00:39:54;;;;;;;21.60;7.47;;;;;;;7.86;71.40;103782.75;5098672;28;20048;-59
2022/01/18 00:42:22;;;;;;;20.40;5.40;;;;;;;7.86;71.08;103779.22;5100006;28;20076;-58
2022/01/18 00:44:50;;;;;;;18.20;6.28;;;;;;;7.86;71.78;103774.72;5099409;28;20067;-59
2022/01/18 00:47:17;;;;;;;28.42;6.10;;;;;;;7.83;71.73;103770.47;5099417;28;20048;-59
2022/01/18 00:49:48;;;;;;;25.45;6.70;;;;;;;7.82;71.92;103768.75;5099266;28;20075;-59
2022/01/18 00:52:18;;;;;;;19.00;5.68;;;;;;;7.82;71.20;103781.31;5100168;28;20105;-59
2022/01/18 00:54:46;;;;;;;19.20;5.53;;;;;;;7.80;71.65;103778.75;5098665;28;20047;-58
2022/01/18 00:57:14;;;;;;;22.02;6.03;;;;;;;7.81;71.72;103779.59;5099831;28;20055;-59
2022/01/18 00:59:44;;;;;;;21.10;6.10;;;;;;;7.80;71.55;103781.44;5098777;28;20314;-59
2022/01/18 01:02:17;;;;;;;26.48;7.35;;;;;;;7.78;71.28;103780.72;5099884;28;20048;-59
2022/01/18 01:04:48;;;;;;;21.17;6.95;;;;;;;7.80;71.59;103780.59;5098730;28;20074;-58
2022/01/18 01:07:17;;;;;;;15.45;5.82;;;;;;;7.79;71.96;103776.22;5096480;28;20130;-59
2022/01/18 01:09:46;;;;;;;24.65;6.07;;;;;;;7.79;71.57;103778.88;5099713;28;20051;-58
2022/01/18 01:12:17;;;;;;;23.95;7.05;;;;;;;7.79;71.80;103781.56;5099881;28;20385;-58
2022/01/18 01:14:46;;;;;;;25.38;5.85;;;;;;;7.79;71.77;103784.25;5098661;28;20374;-59
2022/01/18 01:17:33;;;;;;;24.98;6.40;;;;;;;7.77;72.16;103787.06;5100150;28;20079;-58
2022/01/18 01:41:42;;;;;;;20.45;5.78;;;;;;;7.75;71.71;103780.13;5095346;28;20052;-59
2022/01/18 01:43:12;;;;;;;18.27;6.13;;;;;;;7.75;71.56;103782.81;5098945;28;20082;-59
2022/01/18 01:45:41;;;;;;;19.52;6.03;;;;;;;7.70;71.79;103779.69;5098529;28;20058;-59
2022/01/18 01:48:09;;;;;;;25.42;6.78;;;;;;;7.73;71.78;103780.25;5098154;28;20055;-59
2022/01/18 01:50:46;;;;;;;23.85;6.40;;;;;;;7.73;72.45;103784.78;5099823;28;20047;-59
2022/01/18 01:53:16;;;;;;;27.48;8.27;;;;;;;7.72;71.52;103783.91;5099552;28;20071;-59
2022/01/18 01:55:44;;;;;;;21.17;7.38;;;;;;;7.74;71.70;103784.63;5099127;28;20076;-59
2022/01/18 01:58:12;;;;;;;27.33;6.70;;;;;;;7.75;71.88;103786.34;5099308;28;20048;-59
2022/01/18 02:00:44;;;;;;;24.77;7.15;;;;;;;7.75;72.00;103786.34;5100866;28;20129;-59
2022/01/18 02:03:12;;;;;;;22.65;6.53;;;;;;;7.76;71.86;103790.72;5103535;28;20339;-59
2022/01/18 02:05:41;;;;;;;32.33;7.53;;;;;;;7.76;72.18;103782.69;5093919;28;20087;-59
2022/01/18 02:08:08;;;;;;;18.52;6.55;;;;;;;7.76;71.87;103790.72;5101437;28;20044;-59
2022/01/18 02:10:39;;;;;;;21.33;5.80;;;;;;;7.76;72.21;103792.53;5102728;28;20040;-59
2022/01/18 02:13:08;;;;;;;25.25;7.32;;;;;;;7.76;72.14;103792.53;5102280;28;20098;-59
2022/01/18 02:15:39;;;;;;;27.75;5.97;;;;;;;7.76;71.45;103785.34;5102371;28;20547;-59
2022/01/18 02:23:38;;;;;;;21.73;6.50;;;;;;;7.77;71.60;103787.06;5102533;28;20040;-59
2022/01/18 02:26:06;;;;;;;20.92;6.10;;;;;;;7.77;72.33;103783.53;5103016;28;20083;-59
2022/01/18 02:28:34;;;;;;;22.13;6.40;;;;;;;7.75;71.89;103780.97;5102087;28;20083;-59
2022/01/18 02:31:02;;;;;;;26.40;7.03;;;;;;;7.76;71.59;103779.16;5100384;28;20058;-59
2022/01/18 02:33:30;;;;;;;16.17;5.55;;;;;;;7.74;72.29;103776.59;5102830;28;20044;-59
2022/01/18 02:35:59;;;;;;;24.95;8.10;;;;;;;7.73;72.35;103771.38;5102620;28;20087;-60
2022/01/18 02:38:27;;;;;;;24.45;6.18;;;;;;;7.73;72.17;103769.56;5102665;28;20489;-59
2022/01/18 02:40:55;;;;;;;27.83;7.60;;;;;;;7.74;72.18;103767.72;5099519;28;20072;-59
2022/01/18 02:46:09;;;;;;;23.02;5.70;;;;;;;7.72;72.42;103767.84;5102151;28;20131;-59
2022/01/18 02:48:36;;;;;;;21.02;6.00;;;;;;;7.72;72.02;103770.53;5102521;28;20036;-59
2022/01/18 02:51:06;;;;;;;25.52;7.57;;;;;;;7.73;72.62;103774.06;5102246;28;20518;-59
2022/01/18 02:53:52;;;;;;;30.15;6.97;;;;;;;7.72;71.99;103767.84;5102811;28;20075;-59
2022/01/18 02:56:19;;;;;;;27.75;7.45;;;;;;;7.73;72.26;103774.91;5102179;28;20075;-59
2022/01/18 02:58:47;;;;;;;23.60;9.38;;;;;;;7.73;72.13;103769.56;5100634;28;20406;-60
2022/01/18 03:04:00;;;;;;;26.38;6.97;;;;;;;7.73;72.05;103758.84;5098058;28;20067;-59
2022/01/18 03:06:29;;;;;;;21.83;5.72;;;;;;;7.72;72.70;103764.34;5088236;28;20079;-60
2022/01/18 03:08:57;;;;;;;23.05;7.93;;;;;;;7.73;72.55;103771.38;5098973;28;20100;-59
2022/01/18 03:11:26;;;;;;;19.55;7.00;;;;;;;7.67;72.32;103763.88;5100945;28;20135;-59
2022/01/18 03:13:54;;;;;;;25.35;6.70;;;;;;;7.72;72.31;103780.41;5101204;28;20107;-59
2022/01/18 03:16:21;;;;;;;28.90;7.07;;;;;;;7.72;72.42;103778.56;5101660;28;20287;-59
2022/01/18 03:18:49;;;;;;;29.38;8.18;;;;;;;7.70;72.88;103785.88;5101430;28;20051;-60
2022/01/18 03:21:17;;;;;;;24.35;7.13;;;;;;;7.61;72.17;103772.44;5101962;28;20098;-59
2022/01/18 03:23:51;;;;;;;20.70;6.20;;;;;;;7.68;72.41;103785.16;5102198;28;20113;-59
2022/01/18 03:26:19;;;;;;;25.92;7.50;;;;;;;7.69;72.12;103784.19;5102008;28;20472;-59
2022/01/18 03:28:46;;;;;;;27.52;7.63;;;;;;;7.70;72.37;103788.56;5100123;28;20122;-58
2022/01/18 03:31:13;;;;;;;21.20;6.88;;;;;;;7.70;72.98;103783.19;5101130;28;20103;-59
2022/01/18 03:33:41;;;;;;;20.92;6.18;;;;;;;7.70;71.96;103779.69;5100977;28;20200;-60
2022/01/18 03:36:09;;;;;;;22.00;7.28;;;;;;;7.72;72.64;103780.41;5101449;28;20058;-59
2022/01/18 03:38:37;;;;;;;21.80;7.85;;;;;;;7.72;72.12;103775.88;5101030;28;20074;-59
2022/01/18 03:41:06;;;;;;;19.30;6.97;;;;;;;7.72;72.23;103772.38;5099511;28;20048;-59
2022/01/18 03:43:35;;;;;;;27.20;6.72;;;;;;;7.72;72.44;103780.41;5101075;28;20320;-59
2022/01/18 03:46:05;;;;;;;22.42;6.47;;;;;;;7.73;72.95;103782.09;5100710;28;20567;-59
2022/01/18 03:48:36;;;;;;;21.67;8.02;;;;;;;7.73;72.62;103787.44;5099089;28;20165;-59
2022/01/18 03:51:06;;;;;;;25.83;8.18;;;;;;;7.75;72.57;103785.50;5100933;28;20067;-59
2022/01/18 03:53:34;;;;;;;18.73;7.43;;;;;;;7.74;72.58;103775.75;5101039;28;20075;-59
2022/01/18 03:56:03;;;;;;;25.25;7.55;;;;;;;7.74;72.47;103790.00;5100993;28;20111;-59
2022/01/18 03:58:33;;;;;;;27.95;8.13;;;;;;;7.74;72.11;103789.16;5100043;28;20153;-60
2022/01/18 04:01:01;;;;;;;26.42;8.32;;;;;;;7.75;72.48;103793.50;5099352;28;20051;-59
2022/01/18 04:03:29;;;;;;;20.88;7.28;;;;;;;7.74;72.66;103799.84;5100894;28;20044;-59
2022/01/18 04:05:58;;;;;;;26.67;7.15;;;;;;;7.73;72.98;103804.34;5089849;28;20064;-59
2022/01/18 04:08:26;;;;;;;30.98;8.63;;;;;;;7.72;73.10;103799.97;5100611;28;20484;-59
2022/01/18 04:10:54;;;;;;;29.17;7.70;;;;;;;7.73;72.68;103795.47;5095931;28;20059;-59
2022/01/18 04:13:22;;;;;;;25.85;8.63;;;;;;;7.73;72.62;103790.13;5099969;28;20051;-59
2022/01/18 04:15:51;;;;;;;21.10;7.43;;;;;;;7.71;72.73;103792.94;5100145;28;20083;-59
2022/01/18 04:18:27;;;;;;;18.75;8.10;;;;;;;7.69;72.67;103799.41;5099815;28;20048;-59
2022/01/18 04:29:11;;;;;;;24.60;7.93;;;;;;;7.70;73.02;103812.66;5098161;28;20072;-59
2022/01/18 04:31:41;;;;;;;23.25;8.73;;;;;;;7.70;72.73;103811.81;5100088;28;20098;-59
2022/01/18 04:34:08;;;;;;;23.70;7.93;;;;;;;7.69;72.52;103807.44;5099623;28;20434;-59
2022/01/18 04:36:37;;;;;;;25.05;8.55;;;;;;;7.67;72.80;103807.56;5100239;28;20044;-60
2022/01/18 04:39:05;;;;;;;20.92;7.70;;;;;;;7.66;73.24;103808.53;5091882;28;20079;-59
2022/01/18 04:41:35;;;;;;;21.15;7.88;;;;;;;7.67;73.14;103806.69;5095233;28;20086;-60
2022/01/18 04:49:37;;;;;;;21.42;8.05;;;;;;;7.67;72.58;103799.53;5100074;28;20508;-59
2022/01/18 04:52:05;;;;;;;20.33;8.23;;;;;;;7.68;72.77;103800.38;5100495;28;20043;-59
2022/01/18 04:54:33;;;;;;;18.73;7.32;;;;;;;7.68;72.72;103806.56;5099880;28;20079;-59
2022/01/18 04:59:46;;;;;;;23.75;7.60;;;;;;;7.66;72.98;103802.31;5097372;28;20077;-59
2022/01/18 05:02:15;;;;;;;23.92;9.13;;;;;;;7.65;73.03;103800.63;5099812;28;20059;-59
2022/01/18 05:04:43;;;;;;;23.10;8.23;;;;;;;7.65;72.80;103803.31;5098483;28;20070;-59
2022/01/18 05:07:13;;;;;;;22.02;7.97;;;;;;;7.66;72.80;103799.66;5099975;28;20051;-59
2022/01/18 05:09:42;;;;;;;17.98;7.70;;;;;;;7.64;72.91;103813.16;5093736;28;20058;-59
2022/01/18 05:12:17;;;;;;;18.20;7.50;;;;;;;7.63;73.19;103813.28;5099281;28;20265;-59
2022/01/18 05:14:47;;;;;;;24.70;8.63;;;;;;;7.64;72.79;103813.16;5098500;28;20442;-59
2022/01/18 05:17:34;;;;;;;23.70;7.90;;;;;;;7.64;73.23;103810.50;5099392;28;20072;-59
2022/01/18 05:20:25;;;;;;;26.23;8.45;;;;;;;7.67;73.34;103818.25;5099290;28;20083;-59
2022/01/18 05:22:59;;;;;;;19.17;7.38;;;;;;;7.67;73.05;103822.75;5099226;28;20313;-59
2022/01/18 05:25:29;;;;;;;18.30;7.63;;;;;;;7.68;72.60;103817.28;5093754;28;20052;-59
2022/01/18 05:27:58;;;;;;;19.00;7.97;;;;;;;7.66;72.99;103824.59;5097289;28;20151;-60
2022/01/18 05:30:27;;;;;;;22.70;8.48;;;;;;;7.67;72.49;103826.28;5098441;28;20109;-59
2022/01/18 05:32:57;;;;;;;20.33;7.93;;;;;;;7.69;72.58;103821.66;5098918;28;20063;-59
2022/01/18 05:35:26;;;;;;;20.15;8.25;;;;;;;7.64;73.05;103809.66;5091338;28;20044;-59
2022/01/18 05:37:54;;;;;;;18.95;8.07;;;;;;;7.70;72.74;103822.50;5099341;28;20067;-59
2022/01/18 05:40:22;;;;;;;19.13;7.57;;;;;;;7.68;72.41;103819.97;5094433;28;20043;-59
2022/01/18 05:42:50;;;;;;;18.67;7.63;;;;;;;7.69;73.43;103816.31;5098933;28;20058;-59
2022/01/18 05:45:18;;;;;;;20.83;8.52;;;;;;;7.68;72.48;103814.59;5098566;28;20071;-59
2022/01/18 05:47:46;;;;;;;17.95;8.23;;;;;;;7.67;72.62;103815.59;5097171;28;20055;-59
2022/01/18 05:50:15;;;;;;;17.35;7.13;;;;;;;7.63;73.16;103813.28;5099418;28;20084;-59
2022/01/18 05:52:43;;;;;;;22.60;9.40;;;;;;;7.65;72.41;103814.88;5097919;28;20047;-60
2022/01/18 05:55:11;;;;;;;22.15;8.82;;;;;;;7.65;73.32;103825.56;5099388;28;20370;-59
2022/01/18 05:57:39;;;;;;;21.23;8.40;;;;;;;7.66;73.13;103815.72;5098561;28;20118;-60
2022/01/18 06:00:18;;;;;;;17.33;9.23;;;;;;;7.63;72.77;103813.28;5097893;28;20051;-60
2022/01/18 06:02:58;;;;;;;17.25;9.18;;;;;;;7.63;73.04;103811.47;5098234;28;20076;-60
2022/01/18 06:08:17;;;;;;;15.00;8.43;;;;;;;7.61;73.46;103810.75;5094481;28;20075;-59
2022/01/18 06:10:45;;;;;;;21.10;8.95;;;;;;;7.58;73.08;103805.66;5098446;28;20369;-59
2022/01/18 06:13:14;;;;;;;18.10;9.40;;;;;;;7.62;72.92;103812.44;5098217;28;20047;-59
2022/01/18 06:15:42;;;;;;;18.30;9.68;;;;;;;7.62;73.17;103814.28;5097839;28;20294;-60
2022/01/18 06:18:10;;;;;;;22.40;9.57;;;;;;;7.60;73.27;103818.91;5098561;28;20615;-59
2022/01/18 06:20:40;;;;;;;17.08;9.45;;;;;;;7.62;73.05;103824.97;5099220;28;20078;-59
2022/01/18 06:23:08;;;;;;;20.88;8.63;;;;;;;7.61;73.13;103831.31;5098353;28;20560;-59
2022/01/18 06:25:37;;;;;;;22.05;8.65;;;;;;;7.61;72.91;103834.00;5098318;28;20043;-59
2022/01/18 06:28:05;;;;;;;25.33;9.30;;;;;;;7.60;72.85;103826.94;5098742;28;20082;-60
2022/01/18 06:30:33;;;;;;;20.35;9.50;;;;;;;7.58;73.33;103823.53;5097295;28;20083;-59
2022/01/18 06:33:01;;;;;;;24.38;9.32;;;;;;;7.59;73.15;103827.91;5098783;28;20044;-63
2022/01/18 06:35:29;;;;;;;19.23;8.45;;;;;;;7.60;73.42;103818.91;5099125;28;20052;-59
2022/01/18 06:37:58;;;;;;;27.92;9.95;;;;;;;7.60;73.52;103832.28;5098814;28;20052;-61
2022/01/18 06:40:26;;;;;;;22.83;10.20;;;;;;;7.59;73.46;103828.75;5096501;28;20338;-60
2022/01/18 06:42:54;;;;;;;21.95;9.85;;;;;;;7.61;73.30;103823.28;4385141;28;10000801;-59
2022/01/18 06:45:21;;;;;;;20.67;8.55;;;;;;;7.61;73.05;103825.97;5093888;28;20055;-65
2022/01/18 06:47:49;;;;;;;23.40;9.40;;;;;;;7.61;73.34;103829.47;5099503;28;20528;-59
2022/01/18 06:50:17;;;;;;;20.33;8.38;;;;;;;7.60;73.01;103822.44;5099709;28;20044;-60
2022/01/18 06:52:45;;;;;;;17.52;9.82;;;;;;;7.61;72.77;103829.47;5099159;28;20104;-60
2022/01/18 06:55:15;;;;;;;22.20;10.45;;;;;;;7.62;73.27;103825.81;5098427;28;20122;-59
2022/01/18 06:57:42;;;;;;;23.38;9.45;;;;;;;7.63;73.05;103827.53;5098570;28;20048;-59
2022/01/18 07:00:11;;;;;;;21.83;9.82;;;;;;;7.63;72.95;103829.34;5092407;28;20051;-59
2022/01/18 07:02:39;;;;;;;25.17;10.07;;;;;;;7.61;73.13;103818.78;5098625;28;20063;-61
2022/01/18 07:05:07;;;;;;;21.83;10.18;;;;;;;7.63;73.30;103835.56;5097447;28;20044;-60
2022/01/18 07:07:35;;;;;;;18.90;8.43;;;;;;;7.63;73.49;103824.00;5098844;28;20155;-60
2022/01/18 07:10:03;;;;;;;19.77;9.45;;;;;;;7.63;72.67;103830.22;5098523;28;20603;-60
2022/01/18 07:12:34;;;;;;;24.67;10.32;;;;;;;7.64;72.65;103831.06;4744727;28;9999905;-61
2022/01/18 07:15:03;;;;;;;21.35;8.55;;;;;;;7.61;73.33;103829.47;5086481;28;20059;-58
2022/01/18 07:17:31;;;;;;;25.52;9.27;;;;;;;7.61;73.57;103834.00;5100490;28;20055;-57
2022/01/18 07:19:58;;;;;;;24.00;10.50;;;;;;;7.63;73.74;103832.03;5101407;28;20130;-58
2022/01/18 07:22:26;;;;;;;21.85;9.77;;;;;;;7.63;73.38;103843.59;5102142;28;20040;-58
2022/01/18 07:24:57;;;;;;;21.27;9.55;;;;;;;7.61;73.59;103840.19;5102312;28;20063;-58
2022/01/18 07:27:25;;;;;;;17.38;9.43;;;;;;;7.58;73.59;103845.81;5101556;28;20048;-59
2022/01/18 07:29:54;;;;;;;19.30;9.85;;;;;;;7.58;73.73;103851.16;5094226;28;20166;-59
2022/01/18 07:32:22;;;;;;;26.85;12.25;;;;;;;7.57;73.34;103846.78;5102176;28;20047;-59
2022/01/18 07:34:52;;;;;;;23.25;10.48;;;;;;;7.56;74.19;103839.72;5102083;28;20067;-59
2022/01/18 07:37:20;;;;;;;19.70;10.50;;;;;;;7.56;73.74;103850.44;5101229;28;20048;-59
2022/01/18 07:39:49;;;;;;;21.95;10.10;;;;;;;7.56;73.97;103849.59;5100017;28;20044;-59
2022/01/18 07:42:17;;;;;;;18.58;9.68;;;;;;;7.54;73.98;103849.72;5101057;28;20062;-59
2022/01/18 07:44:45;;;;;;;26.60;10.38;;;;;;;7.55;73.65;103850.56;5100623;28;20067;-59
2022/01/18 07:47:16;;;;;;;21.00;9.73;;;;;;;7.55;73.83;103853.25;5102427;28;20052;-59
2022/01/18 07:49:45;;;;;;;22.77;9.45;;;;;;;7.54;73.72;103852.38;5102034;28;20127;-59
2022/01/18 07:52:12;;;;;;;29.25;10.35;;;;;;;7.54;74.09;103860.41;5102009;28;20356;-59
2022/01/18 07:54:40;;;;;;;23.33;11.07;;;;;;;7.54;73.51;103860.41;5101702;28;20051;-59
2022/01/18 07:57:13;;;;;;;20.63;10.25;;;;;;;7.55;73.61;103855.91;5101438;28;20040;-59
2022/01/18 07:59:41;;;;;;;24.92;10.68;;;;;;;7.53;73.64;103853.38;5101141;28;20052;-60
2022/01/18 08:02:09;;;;;;;19.05;9.48;;;;;;;7.54;74.30;103854.22;5102223;28;20107;-59
2022/01/18 08:04:38;;;;;;;21.73;9.23;;;;;;;7.55;73.78;103859.44;5098740;28;20048;-60
2022/01/18 08:07:06;;;;;;;24.65;9.25;;;;;;;7.46;73.60;103841.47;5095622;28;20110;-59
2022/01/18 08:09:36;;;;;;;23.23;9.70;;;;;;;7.55;74.02;103863.94;5102408;28;20100;-59
2022/01/18 08:12:05;;;;;;;19.75;10.60;;;;;;;7.54;73.72;103865.78;5101567;28;20135;-59
2022/01/18 08:14:33;;;;;;;22.17;10.05;;;;;;;7.55;73.95;103863.94;5079614;28;20426;-59
2022/01/18 08:17:01;;;;;;;20.90;11.35;;;;;;;7.55;74.28;103863.94;5081047;28;20040;-59
2022/01/18 08:19:30;;;;;;;25.52;11.50;;;;;;;7.54;74.03;103862.25;5081860;28;20083;-59
2022/01/18 08:21:59;;;;;;;28.92;10.07;;;;;;;7.55;73.80;103858.59;5081216;28;20063;-59
2022/01/18 08:24:28;;;;;;;23.50;10.50;;;;;;;7.55;73.83;103856.75;5077837;28;20045;-59
2022/01/18 08:26:56;;;;;;;24.27;11.02;;;;;;;7.56;73.69;103868.31;5071609;28;20079;-59
2022/01/18 08:29:24;;;;;;;22.65;10.82;;;;;;;7.55;74.09;103870.16;5080569;28;20102;-59
2022/01/18 08:32:11;;;;;;;23.83;11.25;;;;;;;7.57;73.70;103870.00;5081059;28;20051;-59
2022/01/18 08:34:39;;;;;;;28.25;10.80;;;;;;;7.57;74.00;103853.97;5081276;28;20333;-59
2022/01/18 08:37:09;;;;;;;23.67;11.80;;;;;;;7.58;73.76;103850.31;5081388;28;20044;-59
2022/01/18 08:39:36;;;;;;;25.23;10.82;;;;;;;7.60;73.36;103861.72;5074479;28;20059;-59
2022/01/18 08:42:04;;;;;;;24.63;10.55;;;;;;;7.60;73.82;103856.38;5078031;28;20055;-59
2022/01/18 08:44:32;;;;;;;21.77;10.98;;;;;;;7.60;74.13;103857.22;5079898;28;20052;-59
2022/01/18 08:47:00;;;;;;;20.58;10.07;;;;;;;7.61;74.13;103853.56;5074893;28;20084;-59
2022/01/18 08:49:28;;;;;;;17.38;9.85;;;;;;;7.71;73.49;103850.97;5081221;28;20049;-59
2022/01/18 08:51:55;;;;;;;19.52;9.63;;;;;;;7.85;73.58;103853.34;5080714;28;20070;-59
2022/01/18 08:54:24;;;;;;;19.10;9.30;;;;;;;7.97;72.46;103857.66;5081158;28;20044;-59
2022/01/18 08:56:52;;;;;;;21.67;10.73;;;;;;;8.13;71.73;103863.38;5080214;28;20076;-59
2022/01/18 08:59:21;;;;;;;22.25;10.57;;;;;;;8.29;71.45;103865.59;5079003;28;20427;-59
2022/01/18 09:01:49;;;;;;;22.73;10.82;;;;;;;8.43;70.70;103859.06;5075905;28;20075;-59
2022/01/18 09:04:19;;;;;;;18.13;9.70;;;;;;;8.57;70.21;103863.22;5080782;28;20500;-59
2022/01/18 09:06:50;;;;;;;17.55;9.65;;;;;;;8.70;70.08;103858.44;5069173;28;20051;-59
2022/01/18 09:09:18;;;;;;;17.25;9.23;;;;;;;8.85;68.82;103861.59;5079972;28;20070;-59
2022/01/18 09:11:47;;;;;;;19.00;9.23;;;;;;;8.94;68.78;103858.94;5080739;28;20055;-59
2022/01/18 09:14:16;;;;;;;21.25;9.57;;;;;;;9.02;68.87;103872.53;5096828;28;20332;-59
2022/01/18 09:16:43;;;;;;;24.30;10.00;;;;;;;9.10;68.84;103864.63;5100454;28;20071;-59
2022/01/18 09:19:12;;;;;;;21.27;10.40;;;;;;;9.16;67.94;103870.44;5100501;28;20044;-59
2022/01/18 09:21:39;;;;;;;22.13;9.23;;;;;;;9.20;68.45;103861.13;5100394;28;20101;-59
2022/01/18 09:24:07;;;;;;;18.58;9.50;;;;;;;9.24;68.25;103867.91;5100610;28;20040;-59
2022/01/18 09:26:36;;;;;;;21.80;9.80;;;;;;;9.24;68.25;103874.13;5100902;28;20155;-59
2022/01/18 09:29:09;;;;;;;20.52;9.32;;;;;;;9.28;67.55;103872.84;5099306;28;20067;-59
2022/01/18 09:31:37;;;;;;;18.95;9.88;;;;;;;9.29;68.04;103881.75;5100235;28;20084;-59
2022/01/18 09:34:06;;;;;;;24.42;10.05;;;;;;;9.31;67.98;103879.78;5099836;28;20040;-58
2022/01/18 09:36:34;;;;;;;25.13;10.38;;;;;;;9.33;67.94;103875.97;5098583;28;20505;-60
2022/01/18 09:39:04;;;;;;;24.83;10.82;;;;;;;9.31;67.80;103879.78;5099981;28;20375;-59
2022/01/18 09:41:38;;;;;;;23.42;10.10;;;;;;;9.32;67.95;103876.97;5094913;28;20446;-59
2022/01/18 09:44:08;;;;;;;22.40;10.50;;;;;;;9.36;67.78;103880.22;5099501;28;20048;-60
2022/01/18 09:46:36;;;;;;;21.75;10.68;;;;;;;9.38;67.37;103884.44;5100590;28;20048;-59
2022/01/18 09:49:05;;;;;;;22.13;10.65;;;;;;;9.31;68.40;103886.00;5100035;28;20044;-59
2022/01/18 09:51:33;;;;;;;21.85;9.57;;;;;;;9.21;68.45;103889.66;5100792;28;20048;-59
2022/01/18 09:54:01;;;;;;;20.52;10.13;;;;;;;9.09;68.44;103894.28;5100399;28;20044;-60
2022/01/18 09:56:31;;;;;;;25.63;10.98;;;;;;;8.93;69.27;103881.38;5100518;28;20150;-59
2022/01/18 09:58:59;;;;;;;22.85;10.60;;;;;;;8.80;69.50;103894.19;5099418;28;20052;-59
2022/01/18 10:01:29;;;;;;;23.15;11.02;;;;;;;8.70;70.49;103891.47;5100452;28;20056;-59
2022/01/18 10:04:14;;;;;;;30.98;12.68;;;;;;;8.61;70.68;103894.13;5099742;28;20056;-59
2022/01/18 10:06:42;;;;;;;24.00;12.02;;;;;;;8.55;70.99;103892.84;5094789;28;20076;-59
2022/01/18 10:09:12;;;;;;;21.77;11.05;;;;;;;8.51;71.47;103895.94;5100170;28;20079;-59
2022/01/18 10:12:01;;;;;;;24.02;11.13;;;;;;;8.47;71.76;103898.88;5100497;28;20052;-59
2022/01/18 10:14:29;;;;;;;27.30;11.02;;;;;;;8.45;71.71;103900.00;5095711;28;20125;-60
2022/01/18 10:16:58;;;;;;;23.10;10.98;;;;;;;8.38;72.38;103905.03;5100265;28;20056;-60
2022/01/18 10:19:33;;;;;;;26.65;10.85;;;;;;;8.38;72.17;103893.47;5100334;28;20402;-60
2022/01/18 10:22:08;;;;;;;27.20;10.52;;;;;;;8.34;72.32;103887.53;5103687;28;20613;-60
2022/01/18 10:24:35;;;;;;;21.48;11.75;;;;;;;8.33;72.84;103893.84;5103954;28;20068;-60
2022/01/18 10:27:03;;;;;;;24.55;11.32;;;;;;;8.32;73.02;103888.59;5104384;28;20040;-60
2022/01/18 10:29:33;;;;;;;25.60;11.98;;;;;;;8.31;72.84;103893.09;5102738;28;20075;-61
2022/01/18 10:32:12;;;;;;;25.83;12.23;;;;;;;8.32;72.42;103886.78;5104261;28;20082;-60
2022/01/18 10:35:04;;;;;;;27.63;10.93;;;;;;;8.25;72.61;103884.75;5103771;28;20347;-58
2022/01/18 10:37:31;;;;;;;20.17;11.00;;;;;;;8.24;73.06;103889.25;5100895;28;20044;-61
2022/01/18 10:40:01;;;;;;;21.80;10.75;;;;;;;8.30;72.56;103883.38;5097892;28;20051;-58
2022/01/18 10:42:33;;;;;;;24.02;11.38;;;;;;;8.43;72.29;103876.00;5102210;28;20473;-58
2022/01/18 10:45:04;;;;;;;25.33;11.88;;;;;;;8.56;71.66;103873.09;5096805;28;20074;-58
2022/01/18 10:47:34;;;;;;;24.00;9.98;;;;;;;8.72;70.93;103869.88;5103610;28;20048;-58
2022/01/18 10:50:09;;;;;;;25.73;11.55;;;;;;;8.90;70.26;103862.03;5103969;28;20351;-57
2022/01/18 10:52:37;;;;;;;23.55;10.52;;;;;;;9.04;69.24;103859.81;5103480;28;20044;-58
2022/01/18 10:55:06;;;;;;;23.42;9.38;;;;;;;9.16;69.76;103863.22;5103581;28;20085;-59
2022/01/18 10:57:38;;;;;;;20.95;9.77;;;;;;;9.28;68.84;103859.44;5102838;28;20044;-59
2022/01/18 11:00:09;;;;;;;19.83;9.35;;;;;;;9.41;68.71;103861.84;5102685;28;20052;-58
2022/01/18 11:02:39;;;;;;;21.52;9.90;;;;;;;9.38;68.70;103849.56;5103487;28;20154;-58
2022/01/18 11:05:16;;;;;;;21.98;10.30;;;;;;;9.36;68.77;103859.59;5098196;28;20052;-58
2022/01/18 11:07:45;;;;;;;23.92;9.82;;;;;;;9.21;68.67;103855.63;5101930;28;20048;-59
2022/01/18 11:10:15;;;;;;;21.23;9.68;;;;;;;9.09;69.33;103854.88;5103243;28;20055;-58
2022/01/18 11:12:48;;;;;;;20.83;10.57;;;;;;;8.96;69.98;103848.09;5102333;28;20086;-58
2022/01/18 11:15:20;;;;;;;21.90;9.63;;;;;;;8.89;70.31;103849.63;5102746;28;20120;-59
2022/01/18 11:17:56;;;;;;;22.83;10.18;;;;;;;8.73;70.82;103834.88;5102547;28;20044;-58
2022/01/18 11:20:26;;;;;;;22.27;10.18;;;;;;;8.79;70.70;103853.13;5102089;28;20523;-58
2022/01/18 11:22:54;;;;;;;24.63;11.02;;;;;;;8.74;71.23;103857.19;5096187;28;20047;-58
2022/01/18 11:25:23;;;;;;;26.50;10.70;;;;;;;8.66;71.61;103844.50;5100721;28;20048;-59
2022/01/18 11:27:52;;;;;;;17.27;9.77;;;;;;;8.64;71.58;103845.63;5101351;28;20078;-58
2022/01/18 11:30:24;;;;;;;21.25;9.80;;;;;;;8.62;72.29;103847.59;5101967;28;20081;-58
2022/01/18 11:32:55;;;;;;;21.02;10.70;;;;;;;8.59;71.79;103834.44;5101881;28;20177;-58
2022/01/18 11:35:30;;;;;;;21.80;10.32;;;;;;;8.56;72.37;103838.25;5101751;28;20189;-58
2022/01/18 11:38:05;;;;;;;24.83;10.95;;;;;;;8.56;72.04;103840.09;5101659;28;20059;-58
2022/01/18 11:40:44;;;;;;;24.25;12.77;;;;;;;8.52;72.82;103834.13;5099783;28;20048;-58
2022/01/18 11:43:12;;;;;;;25.80;12.00;;;;;;;8.52;72.80;103835.97;5101956;28;20048;-57
2022/01/18 11:45:42;;;;;;;24.65;12.55;;;;;;;8.51;73.08;103827.09;5101948;28;20580;-58
2022/01/18 11:48:15;;;;;;;27.80;12.50;;;;;;;8.50;72.74;103829.91;5102410;28;20063;-58
2022/01/18 11:50:46;;;;;;;22.38;11.85;;;;;;;8.48;72.31;103835.41;5102757;28;20075;-58
2022/01/18 11:53:22;;;;;;;23.27;11.07;;;;;;;8.47;73.24;103823.81;5101049;28;20508;-58
2022/01/18 11:55:51;;;;;;;22.02;11.45;;;;;;;8.47;73.46;103831.88;5102347;28;20396;-58
2022/01/18 11:58:18;;;;;;;24.35;12.02;;;;;;;8.46;73.49;103824.81;5101266;28;20048;-57
2022/01/18 12:00:53;;;;;;;25.63;12.10;;;;;;;8.48;72.45;103832.72;5101382;28;20055;-58
2022/01/18 12:03:25;;;;;;;22.40;11.35;;;;;;;8.47;73.09;103831.88;5102258;28;20461;-57
2022/01/18 12:05:54;;;;;;;25.83;13.48;;;;;;;8.48;72.83;103828.19;5100647;28;20107;-58
2022/01/18 12:08:34;;;;;;;22.85;11.70;;;;;;;8.49;73.60;103826.38;5100740;28;20059;-58
2022/01/18 12:11:04;;;;;;;26.35;12.18;;;;;;;8.50;73.45;103824.53;5093433;28;20082;-58
2022/01/18 12:13:43;;;;;;;32.38;12.75;;;;;;;8.50;73.29;103813.81;5099794;28;20423;-57
2022/01/18 12:16:27;;;;;;;26.85;11.63;;;;;;;8.49;73.13;103810.28;5099630;28;20111;-57
2022/01/18 12:19:00;;;;;;;26.20;11.52;;;;;;;8.48;73.86;103803.22;5096030;28;20043;-57
2022/01/18 12:21:29;;;;;;;22.75;11.55;;;;;;;8.50;73.38;103803.94;5100077;28;20062;-58
2022/01/18 12:23:59;;;;;;;23.60;11.18;;;;;;;8.50;73.34;103797.72;5099948;28;20074;-58
2022/01/18 12:26:32;;;;;;;22.27;11.98;;;;;;;8.51;73.20;103799.44;5099641;28;20071;-58